Terminal Aerodrome Forecast
Issued by NWS

Home | Current Version | Previous Version | Text Only | Print | Product List | Glossary On
Versions: 1 2 3 4 5 6 7 8 9 10 11 12 13 14 15 16 17 18 19 20 21
000
FTUS43 KGRR 212012 AAA
TAFBTL
TAF AMD
KBTL 212012Z 2120/2218 20008KT P6SM VCTS BKN040CB
     FM212300 VRB03KT P6SM SCT250
     FM220900 VRB03KT 5SM BR BKN150
     FM221400 22006KT P6SM SCT040 SCT150=

USA.gov is the U.S. government's official web portal to all federal, state and local government web resources and services.